createdAt,value
2018-12-19T01:04:13.456Z,4.00
2018-12-19T01:09:17.571Z,3.94
2018-12-19T01:14:20.913Z,3.98
2018-12-19T01:19:24.260Z,3.84
2018-12-19T01:24:27.593Z,3.77
2018-12-19T01:29:30.951Z,3.69
2018-12-19T02:31:38.377Z,3.63
2018-12-19T02:36:41.768Z,3.26
2018-12-19T02:41:45.908Z,3.36
2018-12-19T02:46:49.271Z,3.31
2018-12-19T02:51:52.621Z,3.20
2018-12-19T02:56:56.750Z,2.83
2018-12-19T04:05:27.071Z,2.74
2018-12-19T04:10:29.665Z,2.64
2018-12-19T04:15:32.998Z,2.75
2018-12-19T04:20:37.107Z,2.81
2018-12-19T04:25:40.432Z,2.85
2018-12-19T05:34:08.573Z,3.52
2018-12-19T05:39:11.909Z,3.60
2018-12-19T05:44:15.244Z,3.65
2018-12-19T05:49:19.353Z,3.63
2018-12-19T05:54:22.692Z,3.58
2018-12-19T05:59:26.036Z,3.64
2018-12-19T07:01:34.212Z,3.88
2018-12-19T07:06:37.545Z,3.96
2018-12-19T07:11:40.869Z,4.00
2018-12-19T07:16:44.208Z,4.04
2018-12-19T07:21:47.529Z,4.11
2018-12-19T07:26:50.869Z,4.05
2018-12-19T08:35:16.777Z,4.67
2018-12-19T08:40:20.867Z,4.71
2018-12-19T08:45:24.196Z,4.79
2018-12-19T08:50:27.527Z,4.85
2018-12-19T08:55:30.868Z,4.90
2018-12-19T09:00:34.197Z,4.95
2018-12-19T10:02:39.839Z,5.81
2018-12-19T10:07:42.608Z,5.96
2018-12-19T10:12:45.928Z,6.08
2018-12-19T10:17:49.247Z,6.11
2018-12-19T10:22:52.578Z,6.19
2018-12-19T10:27:55.907Z,6.25
2018-12-19T11:36:19.502Z,6.73
2018-12-19T11:41:23.610Z,6.77
2018-12-19T11:46:26.944Z,6.81
2018-12-19T11:51:30.277Z,6.86
2018-12-19T11:56:33.597Z,6.91
2018-12-19T13:05:01.492Z,7.07
2018-12-19T13:10:04.829Z,7.07
2018-12-19T13:15:08.166Z,7.07
2018-12-19T13:20:12.281Z,7.03
2018-12-19T13:25:15.622Z,7.05
2018-12-19T13:30:18.973Z,7.07
2018-12-19T14:32:24.070Z,7.44
2018-12-19T14:37:27.420Z,7.46
2018-12-19T14:42:30.746Z,7.47
2018-12-19T14:47:34.845Z,7.43
2018-12-19T14:52:38.166Z,7.40
2018-12-19T14:57:41.490Z,7.44
2018-12-19T16:00:50.885Z,7.31
2018-12-19T16:05:54.216Z,7.34
2018-12-19T16:10:57.540Z,7.34
2018-12-19T16:16:00.889Z,7.37
2018-12-19T16:21:04.973Z,7.36
2018-12-19T16:26:08.300Z,7.33
2018-12-19T16:31:11.636Z,7.32
2018-12-19T16:36:15.734Z,7.30
2018-12-19T16:41:19.068Z,7.27
2018-12-19T16:46:23.185Z,7.25
2018-12-19T16:51:26.503Z,7.16
2018-12-19T16:56:29.854Z,7.12
2018-12-19T17:01:33.200Z,7.11
2018-12-19T17:06:36.547Z,7.14
2018-12-19T17:11:40.656Z,7.14
2018-12-19T17:16:43.985Z,7.16
2018-12-19T17:21:48.074Z,7.15
2018-12-19T17:26:51.411Z,7.16
2018-12-19T17:31:54.766Z,7.16
2018-12-19T17:36:58.090Z,7.19
2018-12-19T17:42:01.427Z,7.20
2018-12-19T17:47:04.773Z,7.21
2018-12-19T17:52:08.111Z,7.20
2018-12-19T17:57:11.565Z,7.21
2018-12-19T18:02:14.953Z,7.23
2018-12-19T18:07:18.348Z,7.24
2018-12-19T18:12:21.693Z,7.27
2018-12-19T18:17:25.037Z,7.27
2018-12-19T18:22:30.239Z,7.25
2018-12-19T18:27:33.619Z,7.29
2018-12-19T18:32:37.013Z,7.31
2018-12-19T18:37:44.404Z,7.27
2018-12-19T18:42:47.823Z,7.16
2018-12-19T18:47:59.343Z,7.02
2018-12-19T18:53:02.764Z,6.99
2018-12-19T18:58:08.108Z,6.97
2018-12-19T19:03:12.957Z,6.99
2018-12-19T19:08:54.352Z,6.95
2018-12-19T19:13:58.151Z,6.70
2018-12-19T19:19:02.430Z,6.12
2018-12-19T19:24:10.601Z,6.02
2018-12-19T19:29:13.990Z,5.83
2018-12-19T19:34:17.326Z,5.85
2018-12-19T19:39:20.696Z,5.47
2018-12-19T19:44:24.072Z,5.59
2018-12-19T20:12:19.004Z,5.73
2018-12-19T20:17:26.175Z,5.85
2018-12-19T20:22:29.508Z,5.89
2018-12-19T20:27:32.849Z,5.81
2018-12-19T20:32:36.945Z,5.83
2018-12-19T20:37:40.302Z,5.57
2018-12-19T20:42:43.658Z,5.41
2018-12-19T20:47:50.673Z,5.13
2018-12-19T20:52:54.034Z,5.20
2018-12-19T20:57:59.388Z,5.27
2018-12-19T21:03:02.807Z,5.57
2018-12-19T21:08:06.190Z,5.35
2018-12-19T21:13:10.322Z,5.74
2018-12-19T21:18:19.909Z,5.84
2018-12-19T21:23:37.507Z,5.53
2018-12-19T21:28:40.869Z,5.52
2018-12-19T21:33:44.237Z,5.44
2018-12-19T21:38:48.404Z,5.72
2018-12-19T21:43:55.588Z,5.85
2018-12-19T21:48:59.078Z,5.85
2018-12-19T21:54:02.412Z,5.85
2018-12-19T21:59:05.845Z,5.70
2018-12-19T22:04:17.510Z,5.79
2018-12-19T22:09:21.653Z,6.05
2018-12-19T22:14:26.819Z,6.18
2018-12-19T22:19:31.039Z,6.29
2018-12-19T22:24:34.415Z,6.37
2018-12-19T22:29:37.709Z,6.44
2018-12-19T22:34:41.107Z,6.48
2018-12-19T22:39:44.517Z,6.40
2018-12-19T22:44:47.930Z,6.43
2018-12-19T22:49:52.002Z,6.47
2018-12-19T22:54:55.435Z,6.51
2018-12-19T22:59:58.827Z,6.52
2018-12-19T23:31:04.096Z,6.46
2018-12-19T23:36:07.496Z,6.56
2018-12-19T23:41:10.844Z,6.60
2018-12-19T23:46:14.949Z,6.66
2018-12-19T23:51:19.026Z,6.67
2018-12-19T23:56:22.350Z,6.69
